Time;durP1;ratioP1;P1;durP2;ratioP2;P2;SDS_P1;SDS_P2;PMS_P1;PMS_P2;Temp;Humidity;BMP_temperature;BMP_pressure;BME280_temperature;BME280_humidity;BME280_pressure;Samples;Min_cycle;Max_cycle;Signal;HPM_P1;HPM_P2
2020/12/23 00:00:15;;;;;;;20.47;15.03;;;12.20;99.90;;;;;;5053560;28;20185;-74
2020/12/23 00:02:42;;;;;;;15.87;14.23;;;12.10;99.90;;;;;;5070326;28;20183;-74
2020/12/23 00:05:10;;;;;;;18.80;15.33;;;12.10;99.90;;;;;;5053938;28;21085;-74
2020/12/23 00:07:36;;;;;;;19.03;15.90;;;12.10;99.90;;;;;;5056510;28;20495;-74
2020/12/23 00:10:04;;;;;;;20.70;16.93;;;12.10;99.90;;;;;;5069690;28;20437;-74
2020/12/23 00:12:29;;;;;;;20.80;15.60;;;12.10;99.90;;;;;;5074781;28;20561;-74
2020/12/23 00:14:55;;;;;;;24.43;17.83;;;12.10;99.90;;;;;;5069943;28;20444;-74
2020/12/23 00:17:21;;;;;;;28.47;19.60;;;12.10;99.90;;;;;;5071872;28;20257;-74
2020/12/23 00:19:47;;;;;;;21.80;17.23;;;12.10;99.90;;;;;;5084502;28;20212;-74
2020/12/23 00:22:14;;;;;;;22.40;17.63;;;12.10;99.90;;;;;;5060181;28;20203;-74
2020/12/23 00:24:39;;;;;;;24.40;17.70;;;12.10;99.90;;;;;;5070726;28;20438;-74
2020/12/23 00:27:05;;;;;;;22.50;17.93;;;12.10;99.90;;;;;;5068541;28;20991;-74
2020/12/23 00:29:30;;;;;;;28.30;18.20;;;12.10;99.90;;;;;;5071385;28;20524;-74
2020/12/23 00:31:56;;;;;;;23.60;17.43;;;12.10;99.90;;;;;;5056622;28;20179;-74
2020/12/23 00:34:21;;;;;;;21.80;15.83;;;12.10;99.90;;;;;;5070174;28;20191;-74
2020/12/23 00:36:55;;;;;;;24.23;18.70;;;12.10;99.90;;;;;;5073433;28;20706;-74
2020/12/23 00:39:20;;;;;;;26.83;18.00;;;12.10;99.90;;;;;;5071278;28;20202;-74
2020/12/23 00:41:46;;;;;;;27.37;17.33;;;12.10;99.90;;;;;;5069999;28;20529;-74
2020/12/23 00:44:12;;;;;;;23.63;18.70;;;12.10;99.90;;;;;;5072779;28;20660;-74
2020/12/23 00:46:38;;;;;;;22.83;16.80;;;12.10;99.90;;;;;;5070192;28;20686;-74
2020/12/23 00:49:03;;;;;;;26.03;16.30;;;12.10;99.90;;;;;;5060904;28;20460;-74
2020/12/23 00:51:29;;;;;;;21.80;15.30;;;12.10;99.90;;;;;;5075907;28;20244;-74
2020/12/23 00:53:54;;;;;;;21.60;16.30;;;12.00;99.90;;;;;;5070744;28;20633;-74
2020/12/23 00:56:20;;;;;;;22.00;14.80;;;12.00;99.90;;;;;;5071037;28;20210;-74
2020/12/23 00:58:45;;;;;;;21.90;15.30;;;12.00;99.90;;;;;;5069529;28;20192;-74
2020/12/23 01:01:11;;;;;;;23.10;16.13;;;12.00;99.90;;;;;;5070712;28;20188;-74
2020/12/23 01:03:36;;;;;;;18.47;13.80;;;12.00;99.90;;;;;;5070972;28;20762;-74
2020/12/23 01:06:09;;;;;;;18.73;14.70;;;12.00;99.90;;;;;;5070671;28;20623;-74
2020/12/23 01:08:35;;;;;;;20.47;14.93;;;12.00;99.90;;;;;;5070607;28;20196;-74
2020/12/23 01:11:00;;;;;;;20.60;15.30;;;12.00;99.90;;;;;;5069942;28;20546;-74
2020/12/23 01:13:26;;;;;;;17.17;12.87;;;12.00;99.90;;;;;;5072616;28;20451;-74
2020/12/23 01:15:51;;;;;;;17.20;13.60;;;12.00;99.90;;;;;;5069293;28;20223;-74
2020/12/23 01:18:17;;;;;;;15.67;12.00;;;11.90;99.90;;;;;;5076057;28;20247;-74
2020/12/23 01:20:43;;;;;;;18.33;13.20;;;11.90;99.90;;;;;;5075301;28;21535;-74
2020/12/23 01:23:08;;;;;;;17.23;12.63;;;12.00;99.90;;;;;;5057306;28;20223;-74
2020/12/23 01:25:34;;;;;;;19.97;11.60;;;12.00;99.90;;;;;;5072365;28;20598;-74
2020/12/23 01:27:59;;;;;;;22.10;13.20;;;11.90;99.90;;;;;;5051267;28;20182;-74
2020/12/23 01:30:25;;;;;;;21.80;12.97;;;11.90;99.90;;;;;;5069681;28;20237;-74
2020/12/23 01:32:50;;;;;;;17.57;12.97;;;11.90;99.90;;;;;;5051549;28;20183;-74
2020/12/23 01:35:16;;;;;;;25.80;13.60;;;11.90;99.90;;;;;;5052649;28;20653;-74
2020/12/23 01:37:42;;;;;;;17.50;14.07;;;11.90;99.90;;;;;;5069470;28;20205;-74
2020/12/23 01:40:07;;;;;;;19.00;13.77;;;11.90;99.90;;;;;;5052477;28;20191;-74
2020/12/23 01:42:34;;;;;;;20.40;14.47;;;11.90;99.90;;;;;;5070214;28;20199;-74
2020/12/23 01:45:01;;;;;;;28.00;16.63;;;11.90;99.90;;;;;;5069830;28;20180;-74
2020/12/23 01:47:30;;;;;;;22.03;14.83;;;11.90;99.90;;;;;;5080898;28;20468;-74
2020/12/23 01:49:56;;;;;;;21.63;14.20;;;11.90;99.90;;;;;;5072657;28;20448;-74
2020/12/23 01:52:23;;;;;;;23.37;17.63;;;11.90;99.90;;;;;;5081538;28;20440;-74
2020/12/23 01:54:49;;;;;;;23.63;15.77;;;11.80;99.90;;;;;;5054588;28;20433;-74
2020/12/23 01:57:14;;;;;;;18.67;14.30;;;11.90;99.90;;;;;;5076829;28;20555;-74
2020/12/23 01:59:44;;;;;;;19.93;15.10;;;11.90;99.90;;;;;;5073624;28;20553;-74
2020/12/23 02:02:31;;;;;;;17.03;13.23;;;11.90;99.90;;;;;;5073746;28;20266;-74
2020/12/23 02:04:58;;;;;;;18.50;13.00;;;11.90;99.90;;;;;;5073714;28;20757;-74
2020/12/23 02:07:24;;;;;;;19.77;15.23;;;11.90;99.90;;;;;;5073364;28;20434;-74
2020/12/23 02:09:53;;;;;;;15.23;12.97;;;11.90;99.90;;;;;;5072164;28;20490;-74
2020/12/23 02:12:19;;;;;;;16.97;12.70;;;12.00;99.90;;;;;;5073394;28;20466;-74
2020/12/23 02:14:45;;;;;;;16.80;13.67;;;12.00;99.90;;;;;;5073000;28;20430;-74
2020/12/23 02:17:10;;;;;;;18.80;14.17;;;11.90;99.90;;;;;;5059994;28;20476;-74
2020/12/23 02:19:49;;;;;;;17.33;13.77;;;11.90;99.90;;;;;;5079960;28;20460;-74
2020/12/23 02:22:23;;;;;;;16.77;13.27;;;12.00;99.90;;;;;;5057780;28;20178;-74
2020/12/23 02:24:51;;;;;;;18.00;14.87;;;12.00;99.90;;;;;;5074864;28;20434;-74
2020/12/23 02:27:20;;;;;;;18.57;14.57;;;12.00;99.90;;;;;;5055308;28;20511;-74
2020/12/23 02:29:48;;;;;;;21.47;15.73;;;12.00;99.90;;;;;;5081540;28;20904;-74
2020/12/23 02:32:14;;;;;;;18.07;14.53;;;12.00;99.90;;;;;;5054272;28;20517;-74
2020/12/23 02:34:39;;;;;;;17.63;14.23;;;12.00;99.90;;;;;;5073692;28;20919;-74
2020/12/23 02:37:07;;;;;;;26.97;16.53;;;12.00;99.90;;;;;;5054330;28;20604;-74
2020/12/23 02:39:34;;;;;;;19.43;15.57;;;12.00;99.90;;;;;;5072670;28;20559;-74
2020/12/23 02:42:01;;;;;;;20.20;16.23;;;12.00;99.90;;;;;;5073935;28;20436;-74
2020/12/23 02:44:27;;;;;;;22.53;17.37;;;12.00;99.90;;;;;;5055281;28;20452;-74
2020/12/23 02:47:01;;;;;;;17.87;15.77;;;12.00;99.90;;;;;;5071621;28;20564;-74
2020/12/23 02:49:27;;;;;;;19.57;16.00;;;12.10;99.90;;;;;;5070956;28;20211;-74
2020/12/23 02:51:53;;;;;;;20.53;17.43;;;12.10;99.90;;;;;;5062444;28;20965;-74
2020/12/23 02:54:19;;;;;;;17.53;15.70;;;12.10;99.90;;;;;;5071982;28;20437;-74
2020/12/23 02:56:45;;;;;;;21.33;17.37;;;12.10;99.90;;;;;;5054202;28;20978;-74
2020/12/23 02:59:11;;;;;;;19.30;16.53;;;12.10;99.90;;;;;;5072783;28;20596;-74
2020/12/23 03:01:37;;;;;;;21.07;16.80;;;12.10;99.90;;;;;;5074489;28;20476;-74
2020/12/23 03:04:04;;;;;;;18.00;15.90;;;12.00;99.90;;;;;;5071968;28;20488;-74
2020/12/23 03:06:30;;;;;;;19.40;16.27;;;12.00;99.90;;;;;;5072007;28;20195;-74
2020/12/23 03:08:55;;;;;;;18.60;16.70;;;12.00;99.90;;;;;;5073580;28;20452;-74
2020/12/23 03:11:21;;;;;;;18.40;16.53;;;12.10;99.90;;;;;;5071591;28;20187;-74
2020/12/23 03:13:46;;;;;;;21.53;15.50;;;12.00;99.90;;;;;;5073169;28;20192;-74
2020/12/23 03:16:12;;;;;;;19.03;17.03;;;12.00;99.90;;;;;;5061300;28;20190;-74
2020/12/23 03:18:39;;;;;;;18.43;16.57;;;12.10;99.90;;;;;;5078331;28;20616;-74
2020/12/23 03:21:06;;;;;;;18.13;16.23;;;12.00;99.90;;;;;;5074241;28;20195;-74
2020/12/23 03:23:31;;;;;;;17.07;15.27;;;12.10;99.90;;;;;;5071856;28;20460;-74
2020/12/23 03:25:57;;;;;;;18.47;15.70;;;12.10;99.90;;;;;;5056478;28;20433;-74
2020/12/23 03:28:22;;;;;;;18.33;15.00;;;12.10;99.90;;;;;;5053823;28;20180;-74
2020/12/23 03:30:48;;;;;;;16.57;14.53;;;12.10;99.90;;;;;;5072043;28;20236;-74
2020/12/23 03:33:13;;;;;;;18.00;15.17;;;12.10;99.90;;;;;;5071403;28;20209;-74
2020/12/23 03:35:39;;;;;;;16.20;14.60;;;12.10;99.90;;;;;;5072033;28;20183;-74
2020/12/23 03:38:04;;;;;;;15.60;14.00;;;12.10;99.90;;;;;;5070521;28;20227;-74
2020/12/23 03:40:30;;;;;;;18.73;15.77;;;12.10;99.90;;;;;;5071060;28;20715;-74
2020/12/23 03:42:55;;;;;;;17.73;15.47;;;12.10;99.90;;;;;;5071957;28;20190;-74
2020/12/23 03:45:21;;;;;;;16.33;14.60;;;12.10;99.90;;;;;;5070223;28;20185;-75
2020/12/23 03:47:47;;;;;;;16.60;14.20;;;12.10;99.90;;;;;;5060071;28;20274;-75
2020/12/23 03:50:12;;;;;;;15.63;13.33;;;12.10;99.90;;;;;;5070520;28;20183;-74
2020/12/23 03:52:38;;;;;;;17.20;15.50;;;12.00;99.90;;;;;;5078538;28;20197;-74
2020/12/23 03:55:03;;;;;;;17.83;14.80;;;12.00;99.90;;;;;;5071749;28;20564;-74
2020/12/23 03:57:29;;;;;;;18.30;14.47;;;12.00;99.90;;;;;;5071521;28;20226;-75
2020/12/23 03:59:54;;;;;;;16.00;13.63;;;12.00;99.90;;;;;;5071804;28;20215;-74
2020/12/23 04:02:20;;;;;;;14.27;12.70;;;12.00;99.90;;;;;;5071957;28;20259;-74
2020/12/23 04:04:45;;;;;;;15.50;13.53;;;12.00;99.90;;;;;;5053497;28;20198;-73
2020/12/23 04:07:11;;;;;;;14.87;12.47;;;12.00;99.90;;;;;;5070735;28;20279;-73
2020/12/23 04:09:36;;;;;;;13.97;11.77;;;12.00;99.90;;;;;;5070263;28;20175;-73
2020/12/23 04:12:02;;;;;;;14.40;12.80;;;12.00;99.90;;;;;;5052278;28;20643;-73
2020/12/23 04:14:27;;;;;;;15.93;13.57;;;12.00;99.90;;;;;;5075280;28;20191;-73
2020/12/23 04:16:53;;;;;;;15.60;12.40;;;12.00;99.90;;;;;;5061277;28;20199;-73
2020/12/23 04:19:18;;;;;;;11.80;10.60;;;12.00;99.90;;;;;;5076827;28;20222;-73
2020/12/23 04:21:44;;;;;;;13.20;10.93;;;12.00;99.90;;;;;;5052523;28;20187;-73
2020/12/23 04:24:09;;;;;;;12.10;10.60;;;11.90;99.90;;;;;;5052169;28;20180;-73
2020/12/23 04:26:35;;;;;;;15.83;11.23;;;11.90;99.90;;;;;;5073441;28;20311;-73
2020/12/23 04:29:00;;;;;;;10.83;9.63;;;11.90;99.90;;;;;;5074141;28;20199;-73
2020/12/23 04:31:26;;;;;;;13.97;10.03;;;11.80;99.90;;;;;;5069502;28;20270;-73
2020/12/23 04:33:51;;;;;;;11.07;8.77;;;11.80;99.90;;;;;;5070849;28;20651;-73
2020/12/23 04:36:17;;;;;;;9.27;8.07;;;11.80;99.90;;;;;;5070749;28;20188;-73
2020/12/23 04:38:42;;;;;;;9.10;8.30;;;11.80;99.90;;;;;;5069830;28;20241;-73
2020/12/23 04:41:08;;;;;;;12.33;8.60;;;11.80;99.90;;;;;;5053365;28;20184;-73
2020/12/23 04:43:34;;;;;;;12.87;8.07;;;11.80;99.90;;;;;;5071167;28;20187;-73
2020/12/23 04:46:01;;;;;;;10.33;8.60;;;11.90;99.90;;;;;;5055038;28;20429;-73
2020/12/23 04:48:31;;;;;;;8.47;7.60;;;11.90;99.90;;;;;;5053522;28;20194;-73
2020/12/23 04:50:57;;;;;;;8.93;7.80;;;11.80;99.90;;;;;;5055716;28;21012;-73
2020/12/23 04:53:24;;;;;;;8.60;6.50;;;11.80;99.90;;;;;;5072868;28;20520;-73
2020/12/23 04:55:50;;;;;;;12.80;8.27;;;11.80;99.90;;;;;;5073707;28;21019;-74
2020/12/23 04:58:16;;;;;;;9.17;6.77;;;11.90;99.90;;;;;;5078465;28;20611;-73
2020/12/23 05:00:41;;;;;;;8.13;7.30;;;11.80;99.90;;;;;;5069063;28;20190;-73
2020/12/23 05:03:07;;;;;;;8.17;7.13;;;11.90;99.90;;;;;;5072506;28;20225;-73
2020/12/23 05:05:32;;;;;;;6.90;5.93;;;11.90;99.90;;;;;;5052663;28;20729;-73
2020/12/23 05:07:58;;;;;;;6.83;4.33;;;11.90;99.90;;;;;;5070324;28;20298;-73
2020/12/23 05:10:28;;;;;;;6.17;5.37;;;11.80;99.90;;;;;;5072388;28;20278;-73
2020/12/23 05:12:55;;;;;;;5.13;4.73;;;11.80;99.90;;;;;;5073314;28;20208;-73
2020/12/23 05:15:20;;;;;;;4.10;3.70;;;11.90;99.90;;;;;;5068763;28;20445;-73
2020/12/23 05:17:46;;;;;;;5.00;4.60;;;11.90;99.90;;;;;;5073755;28;20453;-73
2020/12/23 05:20:12;;;;;;;5.97;5.37;;;11.90;99.90;;;;;;5075640;28;20214;-73
2020/12/23 05:22:37;;;;;;;4.60;4.30;;;11.80;99.90;;;;;;5063512;28;20187;-74
2020/12/23 05:25:04;;;;;;;4.07;3.67;;;11.90;99.90;;;;;;5077090;28;20535;-73
2020/12/23 05:27:33;;;;;;;4.13;3.73;;;11.90;99.90;;;;;;5081055;28;20636;-73
2020/12/23 05:30:02;;;;;;;4.00;3.37;;;11.80;99.90;;;;;;5072233;28;20510;-73
2020/12/23 05:32:28;;;;;;;4.17;3.50;;;11.90;99.90;;;;;;5074329;28;20434;-74
2020/12/23 05:35:00;;;;;;;4.07;3.70;;;11.80;99.90;;;;;;5073211;28;20514;-73
2020/12/23 05:37:26;;;;;;;4.73;4.00;;;11.80;99.90;;;;;;5056228;28;20466;-73
2020/12/23 05:39:52;;;;;;;3.90;3.60;;;11.80;99.90;;;;;;5082160;28;20433;-74
2020/12/23 05:42:19;;;;;;;4.80;4.30;;;11.80;99.90;;;;;;5054254;28;20445;-74
2020/12/23 05:44:55;;;;;;;5.20;4.40;;;11.80;99.90;;;;;;5073941;28;20539;-73
2020/12/23 05:47:25;;;;;;;4.63;3.53;;;11.90;99.90;;;;;;5062893;28;20436;-74
2020/12/23 05:49:53;;;;;;;3.67;3.40;;;11.90;99.90;;;;;;5062140;28;20443;-74
2020/12/23 05:52:22;;;;;;;4.50;4.10;;;11.90;99.90;;;;;;5082201;28;20483;-74
2020/12/23 05:54:54;;;;;;;4.63;4.23;;;11.90;99.90;;;;;;5076078;28;20429;-73
2020/12/23 05:57:20;;;;;;;4.80;4.40;;;11.90;99.90;;;;;;5073768;28;20472;-73
2020/12/23 05:59:46;;;;;;;4.23;3.90;;;11.90;99.90;;;;;;5072723;28;21287;-74
2020/12/23 06:02:12;;;;;;;4.80;4.40;;;11.90;99.90;;;;;;5073880;28;20549;-73
2020/12/23 06:04:44;;;;;;;4.70;4.30;;;11.90;99.90;;;;;;5059993;28;20468;-74
2020/12/23 06:07:11;;;;;;;5.90;5.20;;;11.90;99.90;;;;;;5074554;28;20512;-74
2020/12/23 06:09:47;;;;;;;5.47;4.97;;;11.90;99.90;;;;;;5076466;28;20441;-74
2020/12/23 06:12:21;;;;;;;6.70;6.10;;;11.90;99.90;;;;;;5076227;28;20779;-73
2020/12/23 06:14:55;;;;;;;6.80;6.20;;;11.90;99.90;;;;;;5054544;28;20442;-74
2020/12/23 06:17:22;;;;;;;7.90;7.20;;;11.90;99.90;;;;;;5060745;28;20509;-74
2020/12/23 06:19:57;;;;;;;9.27;8.27;;;11.90;99.90;;;;;;5075308;28;20460;-74
2020/12/23 06:22:25;;;;;;;12.17;8.20;;;11.90;99.90;;;;;;5073840;28;20749;-74
2020/12/23 06:24:51;;;;;;;8.33;7.53;;;11.90;99.90;;;;;;5074220;28;20433;-74
2020/12/23 06:27:17;;;;;;;9.60;7.77;;;11.90;99.90;;;;;;5077936;28;20464;-74
2020/12/23 06:29:46;;;;;;;9.17;8.17;;;11.90;99.90;;;;;;5074657;28;20732;-74
2020/12/23 06:32:19;;;;;;;8.73;7.90;;;11.90;99.90;;;;;;5072363;28;20425;-74
2020/12/23 06:34:57;;;;;;;9.10;7.40;;;11.90;99.90;;;;;;5073225;28;20430;-74
2020/12/23 06:37:25;;;;;;;9.57;6.80;;;11.90;99.90;;;;;;5076466;28;20473;-74
2020/12/23 06:39:51;;;;;;;8.47;7.67;;;11.90;99.90;;;;;;5074301;28;20429;-74
2020/12/23 06:42:17;;;;;;;7.80;6.87;;;11.90;99.90;;;;;;5070635;28;20520;-74
2020/12/23 06:44:42;;;;;;;7.70;6.90;;;11.90;99.90;;;;;;5054112;28;20460;-74
2020/12/23 06:47:22;;;;;;;8.20;7.20;;;11.90;99.90;;;;;;5065711;28;20187;-74
2020/12/23 06:49:53;;;;;;;8.10;7.30;;;11.90;99.90;;;;;;5073094;28;20192;-74
2020/12/23 06:52:22;;;;;;;9.20;8.30;;;11.90;99.90;;;;;;5082403;28;20437;-74
2020/12/23 06:55:07;;;;;;;8.20;7.40;;;11.90;99.90;;;;;;5059209;28;20444;-74
2020/12/23 06:57:36;;;;;;;9.47;8.13;;;11.90;99.90;;;;;;5076671;28;20464;-74
2020/12/23 07:00:11;;;;;;;8.37;7.47;;;11.90;99.90;;;;;;5072777;28;20483;-74
2020/12/23 07:02:44;;;;;;;8.13;7.30;;;11.90;99.90;;;;;;5075737;28;20429;-74
2020/12/23 07:05:21;;;;;;;7.50;6.80;;;11.90;99.90;;;;;;5061652;28;20425;-74
2020/12/23 07:07:50;;;;;;;7.30;6.43;;;11.90;99.90;;;;;;5056916;28;21035;-74
2020/12/23 07:10:25;;;;;;;7.30;6.60;;;11.90;99.90;;;;;;5052932;28;20445;-74
2020/12/23 07:12:55;;;;;;;7.37;6.67;;;11.90;99.90;;;;;;5074873;28;20799;-74
2020/12/23 07:15:26;;;;;;;13.03;9.03;;;12.00;99.90;;;;;;5072620;28;20785;-74
2020/12/23 07:17:53;;;;;;;10.03;8.40;;;12.00;99.90;;;;;;5078082;28;20465;-74
2020/12/23 07:20:24;;;;;;;9.37;7.10;;;12.00;99.90;;;;;;5056092;28;20480;-74
2020/12/23 07:22:51;;;;;;;11.57;8.07;;;12.00;99.90;;;;;;5072058;28;20438;-74
2020/12/23 07:25:30;;;;;;;8.40;6.77;;;12.00;99.90;;;;;;5072326;28;20446;-74
2020/12/23 07:27:58;;;;;;;10.30;7.50;;;12.00;99.90;;;;;;5071667;28;20448;-74
2020/12/23 07:30:25;;;;;;;8.47;7.10;;;12.00;99.90;;;;;;5055200;28;21096;-74
2020/12/23 07:33:07;;;;;;;7.90;6.70;;;12.00;99.90;;;;;;5072505;28;20440;-74
2020/12/23 07:35:34;;;;;;;7.47;6.73;;;12.00;99.90;;;;;;5077127;28;20417;-74
2020/12/23 07:38:01;;;;;;;8.60;7.70;;;12.00;99.90;;;;;;5051742;28;20466;-74
2020/12/23 07:40:29;;;;;;;7.20;6.60;;;12.00;99.90;;;;;;5071776;28;20800;-74
2020/12/23 07:42:58;;;;;;;10.37;8.87;;;12.00;99.90;;;;;;5068244;28;20430;-74
2020/12/23 07:45:29;;;;;;;14.83;11.07;;;12.00;99.90;;;;;;5071689;28;20452;-74
2020/12/23 07:48:00;;;;;;;13.23;9.70;;;12.00;99.90;;;;;;5077390;28;20557;-74
2020/12/23 07:50:29;;;;;;;9.43;7.60;;;12.10;99.90;;;;;;5074712;28;20452;-74
2020/12/23 07:52:54;;;;;;;8.57;6.77;;;12.00;99.90;;;;;;5074560;28;20796;-74
2020/12/23 07:55:22;;;;;;;7.43;6.73;;;12.00;99.90;;;;;;5054097;28;20445;-74
2020/12/23 07:57:54;;;;;;;7.73;6.93;;;12.00;99.90;;;;;;5078563;28;20214;-74
2020/12/23 08:00:21;;;;;;;6.80;6.20;;;12.00;99.90;;;;;;5070820;28;20433;-74
2020/12/23 08:02:47;;;;;;;6.17;5.57;;;12.10;99.90;;;;;;5060591;28;20445;-74
2020/12/23 08:05:13;;;;;;;5.40;4.90;;;12.00;99.90;;;;;;5073289;28;20432;-74
2020/12/23 08:07:44;;;;;;;6.30;5.60;;;12.00;99.90;;;;;;5054032;28;20838;-74
2020/12/23 08:10:17;;;;;;;8.47;7.03;;;12.00;99.90;;;;;;5053155;28;20192;-74
2020/12/23 08:13:01;;;;;;;5.87;5.27;;;12.00;99.90;;;;;;5052794;28;20950;-74
2020/12/23 08:15:27;;;;;;;6.90;5.63;;;12.00;99.90;;;;;;5072174;28;20530;-74
2020/12/23 08:18:03;;;;;;;6.67;6.07;;;12.00;99.90;;;;;;5084330;28;20469;-74
2020/12/23 08:20:30;;;;;;;7.07;5.20;;;12.00;99.90;;;;;;5058058;28;20461;-74
2020/12/23 08:22:57;;;;;;;5.30;4.77;;;11.90;99.90;;;;;;5074447;28;20520;-74
2020/12/23 08:25:24;;;;;;;4.23;3.83;;;12.00;99.90;;;;;;5071228;28;20486;-74
2020/12/23 08:27:51;;;;;;;4.30;3.90;;;12.00;99.90;;;;;;5072619;28;20669;-74
2020/12/23 08:30:31;;;;;;;4.00;3.30;;;12.00;99.90;;;;;;5069391;28;21248;-74
2020/12/23 08:33:00;;;;;;;3.83;3.10;;;12.00;99.90;;;;;;5073494;28;20449;-74
2020/12/23 08:35:30;;;;;;;2.83;2.63;;;12.00;99.90;;;;;;5071319;28;20433;-74
2020/12/23 08:37:56;;;;;;;2.67;2.47;;;12.00;99.90;;;;;;5052000;28;20477;-73
2020/12/23 08:40:22;;;;;;;3.20;2.67;;;12.00;99.90;;;;;;5071614;28;20755;-74
2020/12/23 08:42:56;;;;;;;4.00;2.90;;;12.00;99.90;;;;;;5071022;28;20529;-74
2020/12/23 08:45:29;;;;;;;4.27;3.03;;;12.00;99.90;;;;;;5059611;28;20202;-74
2020/12/23 08:47:58;;;;;;;6.43;2.67;;;12.10;99.90;;;;;;5064925;28;20572;-74
2020/12/23 08:50:26;;;;;;;2.87;2.60;;;12.10;99.90;;;;;;5073305;28;20466;-74
2020/12/23 08:52:53;;;;;;;2.60;2.30;;;12.10;99.90;;;;;;5072616;28;20445;-74
2020/12/23 08:55:20;;;;;;;2.93;2.73;;;12.10;99.90;;;;;;5080833;28;20443;-74
2020/12/23 08:57:46;;;;;;;2.20;1.90;;;12.10;99.90;;;;;;5068610;28;20473;-74
2020/12/23 09:00:19;;;;;;;1.90;1.53;;;12.10;99.90;;;;;;5076854;28;20918;-74
2020/12/23 09:02:46;;;;;;;2.60;1.60;;;12.10;99.90;;;;;;5075570;28;20532;-73
2020/12/23 09:05:28;;;;;;;2.10;1.90;;;12.10;99.90;;;;;;5056812;28;20819;-73
2020/12/23 09:08:05;;;;;;;1.70;1.60;;;12.10;99.90;;;;;;5074574;28;21101;-73
2020/12/23 09:10:31;;;;;;;3.10;1.37;;;12.10;99.90;;;;;;5074451;28;21297;-73
2020/12/23 09:13:11;;;;;;;1.77;1.50;;;12.10;99.90;;;;;;5073331;28;20441;-73
2020/12/23 09:15:37;;;;;;;2.07;1.53;;;12.20;99.90;;;;;;5079301;28;20445;-74
2020/12/23 09:18:07;;;;;;;4.23;1.23;;;12.20;99.90;;;;;;5061926;28;20470;-73
2020/12/23 09:20:35;;;;;;;1.70;1.50;;;12.20;99.90;;;;;;5078938;28;20475;-74
2020/12/23 09:23:01;;;;;;;1.97;1.17;;;12.30;99.90;;;;;;5073126;28;20505;-74
2020/12/23 09:25:26;;;;;;;0.90;0.80;;;12.30;99.90;;;;;;5073075;28;20855;-73
2020/12/23 09:27:54;;;;;;;1.20;1.10;;;12.30;99.90;;;;;;5073543;28;20187;-73
2020/12/23 09:30:35;;;;;;;1.20;1.00;;;12.30;99.90;;;;;;5060009;28;21167;-74
2020/12/23 09:33:00;;;;;;;1.40;1.00;;;12.30;99.90;;;;;;5073172;28;20844;-73
2020/12/23 09:35:27;;;;;;;1.57;1.13;;;12.30;99.90;;;;;;5074811;28;20445;-73
2020/12/23 09:38:31;;;;;;;1.00;0.87;;;12.30;99.90;;;;;;5055924;28;20575;-73
2020/12/23 09:40:59;;;;;;;1.00;0.80;;;12.40;99.90;;;;;;5064736;28;20442;-73
2020/12/23 09:43:26;;;;;;;1.10;0.80;;;12.40;99.90;;;;;;5088303;28;20962;-73
2020/12/23 09:45:53;;;;;;;0.87;0.80;;;12.40;99.90;;;;;;5059113;28;20495;-74
2020/12/23 09:48:21;;;;;;;0.97;0.87;;;12.50;99.90;;;;;;5064311;28;20430;-73
2020/12/23 09:50:47;;;;;;;1.40;0.90;;;12.60;99.90;;;;;;5074578;28;20444;-73
2020/12/23 09:53:13;;;;;;;1.10;0.87;;;12.60;99.90;;;;;;5074851;28;20789;-73
2020/12/23 09:55:43;;;;;;;2.57;2.37;;;12.60;99.90;;;;;;5074522;28;20433;-73
2020/12/23 09:58:10;;;;;;;1.77;1.37;;;12.70;99.90;;;;;;5083136;28;20469;-73
2020/12/23 10:00:36;;;;;;;1.10;0.93;;;12.80;99.90;;;;;;5055864;28;20438;-74
2020/12/23 10:03:01;;;;;;;1.40;1.30;;;12.80;99.90;;;;;;5057210;28;20448;-74
2020/12/23 10:05:29;;;;;;;1.27;1.00;;;12.90;99.90;;;;;;5072762;28;20184;-74
2020/12/23 10:07:55;;;;;;;1.40;0.90;;;13.00;99.90;;;;;;5073655;28;20230;-74
2020/12/23 10:10:20;;;;;;;1.00;0.90;;;13.00;99.90;;;;;;5073305;28;20449;-74
2020/12/23 10:12:46;;;;;;;2.10;0.93;;;13.10;99.90;;;;;;5074655;28;20455;-74
2020/12/23 10:15:11;;;;;;;1.07;0.90;;;13.10;99.90;;;;;;5071906;28;20735;-74
2020/12/23 10:17:37;;;;;;;0.63;0.63;;;13.10;99.90;;;;;;5078229;28;20252;-74
2020/12/23 10:20:05;;;;;;;2.17;1.97;;;13.20;99.90;;;;;;5056709;28;20294;-74
2020/12/23 10:22:30;;;;;;;0.90;0.70;;;13.20;99.90;;;;;;5054632;28;20195;-74
2020/12/23 10:24:56;;;;;;;1.50;0.93;;;13.30;99.90;;;;;;5055756;28;20429;-74
2020/12/23 10:27:21;;;;;;;1.40;1.00;;;13.30;99.90;;;;;;5056541;28;20179;-74
2020/12/23 10:29:47;;;;;;;1.77;0.80;;;13.40;99.90;;;;;;5055392;28;20199;-74
2020/12/23 10:32:13;;;;;;;1.30;0.93;;;13.40;99.90;;;;;;5071963;28;20244;-74
2020/12/23 10:34:39;;;;;;;2.50;0.60;;;13.50;99.90;;;;;;5073217;28;20240;-74
2020/12/23 10:37:05;;;;;;;0.80;0.80;;;13.40;99.90;;;;;;5074143;28;20465;-74
2020/12/23 10:39:30;;;;;;;1.30;1.10;;;13.40;99.90;;;;;;5073521;28;20688;-74
2020/12/23 10:41:56;;;;;;;1.40;0.73;;;13.50;99.90;;;;;;5056104;28;20190;-74
2020/12/23 10:44:23;;;;;;;3.33;1.63;;;13.50;99.90;;;;;;5072756;28;20239;-74
2020/12/23 10:46:55;;;;;;;2.90;0.80;;;13.50;99.90;;;;;;5078416;28;20190;-74
2020/12/23 10:49:22;;;;;;;1.50;1.40;;;13.40;99.90;;;;;;5071805;28;20791;-74
2020/12/23 10:51:49;;;;;;;2.20;0.97;;;13.40;99.90;;;;;;5061327;28;20445;-74
2020/12/23 10:54:15;;;;;;;1.03;0.90;;;13.40;99.90;;;;;;5072688;28;21155;-74
2020/12/23 10:56:40;;;;;;;2.07;1.00;;;13.50;99.90;;;;;;5056228;28;20556;-74
2020/12/23 10:59:06;;;;;;;1.83;1.13;;;13.50;99.90;;;;;;5072896;28;20713;-74
2020/12/23 11:01:31;;;;;;;1.47;1.00;;;13.50;99.90;;;;;;5054006;28;20515;-74
2020/12/23 11:03:57;;;;;;;1.23;1.10;;;13.50;99.90;;;;;;5057527;28;20333;-74
2020/12/23 11:06:22;;;;;;;2.07;1.20;;;13.50;99.90;;;;;;5074727;28;20542;-74
2020/12/23 11:08:48;;;;;;;2.33;1.60;;;13.40;99.90;;;;;;5074015;28;20226;-74
2020/12/23 11:11:14;;;;;;;2.00;1.10;;;13.30;99.90;;;;;;5073510;28;20176;-74
2020/12/23 11:13:41;;;;;;;1.87;1.77;;;13.30;99.90;;;;;;5054276;28;20187;-74
2020/12/23 11:16:12;;;;;;;3.60;2.43;;;13.30;99.90;;;;;;5077469;28;20496;-74
2020/12/23 11:18:38;;;;;;;1.93;1.30;;;13.40;99.90;;;;;;5054656;28;20461;-74
2020/12/23 11:21:03;;;;;;;1.73;1.40;;;13.30;99.90;;;;;;5063022;28;20453;-74
2020/12/23 11:23:29;;;;;;;1.60;0.80;;;13.30;99.90;;;;;;5075505;28;20594;-74
2020/12/23 11:25:55;;;;;;;1.53;1.23;;;13.30;99.90;;;;;;5072202;28;20728;-74
2020/12/23 11:28:21;;;;;;;1.20;1.10;;;13.30;99.90;;;;;;5062487;28;20188;-74
2020/12/23 11:30:47;;;;;;;1.13;0.73;;;13.30;99.90;;;;;;5072562;28;20430;-74
2020/12/23 11:33:13;;;;;;;1.20;0.90;;;13.30;99.90;;;;;;5058138;28;20996;-74
2020/12/23 11:35:38;;;;;;;2.43;1.20;;;13.40;99.90;;;;;;5071880;28;20516;-74
2020/12/23 11:38:04;;;;;;;1.57;1.00;;;13.40;99.90;;;;;;5062382;28;20217;-74
2020/12/23 11:40:29;;;;;;;3.50;1.43;;;13.40;99.90;;;;;;5075816;28;20240;-74
2020/12/23 11:42:56;;;;;;;1.47;1.13;;;13.40;99.90;;;;;;5054926;28;20194;-74
2020/12/23 11:45:21;;;;;;;1.60;1.40;;;13.30;99.90;;;;;;5072197;28;20218;-74
2020/12/23 11:47:47;;;;;;;3.10;1.43;;;13.30;99.90;;;;;;5071849;28;20465;-74
2020/12/23 11:50:13;;;;;;;2.37;1.90;;;13.30;99.90;;;;;;5054035;28;20603;-74
2020/12/23 11:52:39;;;;;;;2.50;1.47;;;13.30;99.90;;;;;;5072480;28;20433;-74
2020/12/23 11:55:04;;;;;;;1.60;1.40;;;13.30;99.90;;;;;;5055224;28;20613;-75
2020/12/23 11:57:30;;;;;;;1.40;1.30;;;13.20;99.90;;;;;;5071419;28;20214;-74
2020/12/23 11:59:56;;;;;;;2.07;1.43;;;13.20;99.90;;;;;;5057982;28;20774;-74
2020/12/23 12:02:21;;;;;;;1.53;0.97;;;13.10;99.90;;;;;;5072375;28;20861;-75
2020/12/23 12:04:47;;;;;;;3.57;1.60;;;13.10;99.90;;;;;;5072043;28;20446;-75
2020/12/23 12:07:12;;;;;;;1.83;1.63;;;13.00;99.90;;;;;;5074864;28;20190;-75
2020/12/23 12:09:38;;;;;;;2.53;1.90;;;12.90;99.90;;;;;;5072448;28;20180;-75
2020/12/23 12:12:04;;;;;;;1.87;1.60;;;12.90;99.90;;;;;;5053585;28;20282;-75
2020/12/23 12:14:30;;;;;;;1.60;1.30;;;12.80;99.90;;;;;;5053219;28;20187;-74
2020/12/23 12:16:56;;;;;;;2.13;1.53;;;12.80;99.90;;;;;;5074164;28;20226;-74
2020/12/23 12:19:22;;;;;;;1.60;1.50;;;12.80;99.90;;;;;;5070224;28;20994;-74
2020/12/23 12:21:48;;;;;;;1.33;1.13;;;12.70;99.90;;;;;;5074581;28;20282;-74
2020/12/23 12:24:13;;;;;;;1.70;1.30;;;12.70;99.90;;;;;;5052947;28;21109;-74
2020/12/23 12:26:39;;;;;;;1.50;1.23;;;12.70;99.90;;;;;;5072580;28;20218;-74
2020/12/23 12:29:04;;;;;;;8.10;1.30;;;12.70;99.90;;;;;;5071069;28;20190;-74
2020/12/23 12:31:31;;;;;;;1.50;1.20;;;12.70;99.90;;;;;;5070634;28;20187;-74
2020/12/23 12:33:57;;;;;;;1.83;1.30;;;12.70;99.90;;;;;;5070915;28;20244;-74
2020/12/23 12:36:24;;;;;;;1.40;1.30;;;12.70;99.90;;;;;;5071484;28;20446;-74
2020/12/23 12:38:50;;;;;;;2.53;1.87;;;12.70;99.90;;;;;;5072781;28;20461;-74